sensor_id;sensor_type;location;lat;lon;timestamp;P1;durP1;ratioP1;P2;durP2;ratioP2
12912;SDS011;6524;51.368;11.984;2023-05-16T04:00:16;14.68;;;12.52;;
12912;SDS011;6524;51.368;11.984;2023-05-16T04:05:16;13.90;;;12.40;;
12912;SDS011;6524;51.368;11.984;2023-05-16T04:10:17;15.02;;;12.98;;
12912;SDS011;6524;51.368;11.984;2023-05-16T04:20:25;13.98;;;11.73;;
12912;SDS011;6524;51.368;11.984;2023-05-16T04:25:25;13.63;;;11.60;;
12912;SDS011;6524;51.368;11.984;2023-05-16T04:30:26;14.27;;;11.50;;
12912;SDS011;6524;51.368;11.984;2023-05-16T04:35:34;12.98;;;11.52;;
12912;SDS011;6524;51.368;11.984;2023-05-16T04:40:34;13.23;;;11.52;;
12912;SDS011;6524;51.368;11.984;2023-05-16T04:45:35;14.93;;;12.32;;
12912;SDS011;6524;51.368;11.984;2023-05-16T04:50:35;14.27;;;12.43;;
12912;SDS011;6524;51.368;11.984;2023-05-16T04:55:36;14.45;;;12.25;;
12912;SDS011;6524;51.368;11.984;2023-05-16T05:00:36;14.13;;;12.52;;
12912;SDS011;6524;51.368;11.984;2023-05-16T05:05:37;15.50;;;12.82;;
12912;SDS011;6524;51.368;11.984;2023-05-16T05:10:38;15.70;;;13.20;;
12912;SDS011;6524;51.368;11.984;2023-05-16T05:15:39;15.75;;;13.27;;
12912;SDS011;6524;51.368;11.984;2023-05-16T05:20:39;16.35;;;13.88;;
12912;SDS011;6524;51.368;11.984;2023-05-16T05:25:41;17.40;;;14.75;;
12912;SDS011;6524;51.368;11.984;2023-05-16T05:30:45;18.65;;;14.50;;
12912;SDS011;6524;51.368;11.984;2023-05-16T05:35:47;18.23;;;15.60;;
12912;SDS011;6524;51.368;11.984;2023-05-16T05:40:48;17.73;;;15.35;;
12912;SDS011;6524;51.368;11.984;2023-05-16T05:45:48;16.65;;;14.85;;
12912;SDS011;6524;51.368;11.984;2023-05-16T05:50:49;19.35;;;15.35;;
12912;SDS011;6524;51.368;11.984;2023-05-16T05:55:49;19.40;;;14.90;;
12912;SDS011;6524;51.368;11.984;2023-05-16T06:00:50;15.15;;;13.63;;
12912;SDS011;6524;51.368;11.984;2023-05-16T06:05:50;15.32;;;13.82;;
12912;SDS011;6524;51.368;11.984;2023-05-16T06:10:51;16.95;;;13.98;;
12912;SDS011;6524;51.368;11.984;2023-05-16T06:15:52;15.32;;;12.98;;
12912;SDS011;6524;51.368;11.984;2023-05-16T06:20:53;13.27;;;10.27;;
12912;SDS011;6524;51.368;11.984;2023-05-16T06:25:53;17.02;;;9.05;;
12912;SDS011;6524;51.368;11.984;2023-05-16T06:30:54;9.05;;;8.13;;
12912;SDS011;6524;51.368;11.984;2023-05-16T06:35:56;9.82;;;7.63;;
12912;SDS011;6524;51.368;11.984;2023-05-16T06:40:56;6.75;;;5.60;;
12912;SDS011;6524;51.368;11.984;2023-05-16T06:45:57;5.10;;;4.60;;
12912;SDS011;6524;51.368;11.984;2023-05-16T06:50:57;6.38;;;3.72;;
12912;SDS011;6524;51.368;11.984;2023-05-16T06:56:00;5.10;;;4.10;;
12912;SDS011;6524;51.368;11.984;2023-05-16T07:01:00;4.78;;;3.75;;
12912;SDS011;6524;51.368;11.984;2023-05-16T07:06:01;5.40;;;4.00;;
12912;SDS011;6524;51.368;11.984;2023-05-16T07:11:01;5.70;;;4.18;;
12912;SDS011;6524;51.368;11.984;2023-05-16T07:16:02;5.18;;;4.47;;
12912;SDS011;6524;51.368;11.984;2023-05-16T07:21:03;7.80;;;4.28;;
12912;SDS011;6524;51.368;11.984;2023-05-16T07:26:03;5.05;;;3.78;;
12912;SDS011;6524;51.368;11.984;2023-05-16T07:31:04;5.68;;;3.50;;
12912;SDS011;6524;51.368;11.984;2023-05-16T07:36:06;4.53;;;3.60;;
12912;SDS011;6524;51.368;11.984;2023-05-16T07:41:07;4.53;;;2.90;;
12912;SDS011;6524;51.368;11.984;2023-05-16T07:46:08;3.38;;;3.00;;
12912;SDS011;6524;51.368;11.984;2023-05-16T07:51:09;3.80;;;2.65;;
12912;SDS011;6524;51.368;11.984;2023-05-16T07:56:10;3.22;;;2.47;;
12912;SDS011;6524;51.368;11.984;2023-05-16T08:01:10;4.15;;;2.50;;
12912;SDS011;6524;51.368;11.984;2023-05-16T08:06:11;4.05;;;2.70;;
12912;SDS011;6524;51.368;11.984;2023-05-16T08:11:12;3.28;;;2.78;;
12912;SDS011;6524;51.368;11.984;2023-05-16T08:16:12;7.78;;;3.53;;
12912;SDS011;6524;51.368;11.984;2023-05-16T08:21:13;6.43;;;3.88;;
12912;SDS011;6524;51.368;11.984;2023-05-16T08:26:18;2.50;;;2.10;;
12912;SDS011;6524;51.368;11.984;2023-05-16T08:31:21;2.50;;;2.30;;
12912;SDS011;6524;51.368;11.984;2023-05-16T08:36:22;2.58;;;1.90;;
12912;SDS011;6524;51.368;11.984;2023-05-16T08:41:23;5.80;;;2.10;;
12912;SDS011;6524;51.368;11.984;2023-05-16T08:46:23;4.15;;;1.95;;
12912;SDS011;6524;51.368;11.984;2023-05-16T08:51:25;3.13;;;1.90;;
12912;SDS011;6524;51.368;11.984;2023-05-16T08:56:27;58.97;;;12.70;;
12912;SDS011;6524;51.368;11.984;2023-05-16T09:01:29;3.58;;;2.00;;
12912;SDS011;6524;51.368;11.984;2023-05-16T09:06:31;5.82;;;3.20;;
12912;SDS011;6524;51.368;11.984;2023-05-16T09:11:32;7.47;;;3.20;;
12912;SDS011;6524;51.368;11.984;2023-05-16T09:16:33;7.07;;;3.10;;
12912;SDS011;6524;51.368;11.984;2023-05-16T09:21:33;6.53;;;3.67;;
12912;SDS011;6524;51.368;11.984;2023-05-16T09:26:38;4.72;;;3.35;;
12912;SDS011;6524;51.368;11.984;2023-05-16T09:31:38;6.75;;;3.35;;
12912;SDS011;6524;51.368;11.984;2023-05-16T09:36:39;4.68;;;3.47;;
12912;SDS011;6524;51.368;11.984;2023-05-16T09:41:40;6.20;;;3.63;;
12912;SDS011;6524;51.368;11.984;2023-05-16T09:46:43;9.50;;;4.50;;
12912;SDS011;6524;51.368;11.984;2023-05-16T09:51:44;3.72;;;2.40;;
12912;SDS011;6524;51.368;11.984;2023-05-16T09:56:48;5.38;;;2.80;;
12912;SDS011;6524;51.368;11.984;2023-05-16T10:01:50;4.97;;;2.80;;
12912;SDS011;6524;51.368;11.984;2023-05-16T10:06:53;5.35;;;2.80;;
12912;SDS011;6524;51.368;11.984;2023-05-16T10:11:59;5.13;;;2.83;;
12912;SDS011;6524;51.368;11.984;2023-05-16T10:17:05;8.00;;;3.20;;
12912;SDS011;6524;51.368;11.984;2023-05-16T10:22:07;4.53;;;2.85;;
12912;SDS011;6524;51.368;11.984;2023-05-16T10:27:10;5.18;;;3.00;;
12912;SDS011;6524;51.368;11.984;2023-05-16T10:32:12;6.03;;;3.30;;
12912;SDS011;6524;51.368;11.984;2023-05-16T10:37:12;4.93;;;3.63;;
12912;SDS011;6524;51.368;11.984;2023-05-16T10:42:13;6.80;;;3.30;;
12912;SDS011;6524;51.368;11.984;2023-05-16T10:47:20;5.13;;;2.90;;
12912;SDS011;6524;51.368;11.984;2023-05-16T10:52:21;6.95;;;3.55;;
12912;SDS011;6524;51.368;11.984;2023-05-16T10:57:32;8.45;;;3.58;;
12912;SDS011;6524;51.368;11.984;2023-05-16T11:02:38;7.18;;;3.40;;
12912;SDS011;6524;51.368;11.984;2023-05-16T11:07:40;4.85;;;3.17;;
12912;SDS011;6524;51.368;11.984;2023-05-16T11:12:47;6.35;;;3.42;;
12912;SDS011;6524;51.368;11.984;2023-05-16T11:17:49;7.43;;;3.17;;
12912;SDS011;6524;51.368;11.984;2023-05-16T11:22:50;7.22;;;3.50;;
12912;SDS011;6524;51.368;11.984;2023-05-16T11:27:51;7.63;;;2.95;;
12912;SDS011;6524;51.368;11.984;2023-05-16T11:32:51;7.72;;;3.00;;
12912;SDS011;6524;51.368;11.984;2023-05-16T11:37:51;6.32;;;2.78;;
12912;SDS011;6524;51.368;11.984;2023-05-16T11:42:52;8.10;;;3.00;;
12912;SDS011;6524;51.368;11.984;2023-05-16T11:47:52;7.50;;;2.83;;
12912;SDS011;6524;51.368;11.984;2023-05-16T11:52:53;7.15;;;2.65;;
12912;SDS011;6524;51.368;11.984;2023-05-16T11:57:56;8.60;;;2.70;;
12912;SDS011;6524;51.368;11.984;2023-05-16T12:03:01;7.25;;;2.50;;
12912;SDS011;6524;51.368;11.984;2023-05-16T12:08:03;5.60;;;2.42;;
12912;SDS011;6524;51.368;11.984;2023-05-16T12:13:04;5.22;;;2.53;;
12912;SDS011;6524;51.368;11.984;2023-05-16T12:18:04;8.50;;;2.70;;
12912;SDS011;6524;51.368;11.984;2023-05-16T12:23:09;5.70;;;2.33;;
12912;SDS011;6524;51.368;11.984;2023-05-16T12:28:11;5.38;;;2.47;;
12912;SDS011;6524;51.368;11.984;2023-05-16T12:33:14;5.13;;;2.50;;
12912;SDS011;6524;51.368;11.984;2023-05-16T12:38:15;8.10;;;2.60;;
12912;SDS011;6524;51.368;11.984;2023-05-16T12:48:21;3.45;;;2.22;;
12912;SDS011;6524;51.368;11.984;2023-05-16T12:53:23;5.28;;;2.50;;
12912;SDS011;6524;51.368;11.984;2023-05-16T12:58:23;6.60;;;2.45;;
12912;SDS011;6524;51.368;11.984;2023-05-16T13:03:23;5.95;;;2.10;;
12912;SDS011;6524;51.368;11.984;2023-05-16T13:08:24;9.15;;;2.60;;
12912;SDS011;6524;51.368;11.984;2023-05-16T13:13:25;5.93;;;2.55;;
12912;SDS011;6524;51.368;11.984;2023-05-16T13:18:25;3.85;;;2.03;;
12912;SDS011;6524;51.368;11.984;2023-05-16T13:23:26;3.88;;;2.10;;
12912;SDS011;6524;51.368;11.984;2023-05-16T13:34:19;3.92;;;2.05;;
12912;SDS011;6524;51.368;11.984;2023-05-16T13:39:20;4.30;;;2.03;;
12912;SDS011;6524;51.368;11.984;2023-05-16T13:44:21;6.78;;;2.40;;
12912;SDS011;6524;51.368;11.984;2023-05-16T13:49:21;3.47;;;1.88;;
12912;SDS011;6524;51.368;11.984;2023-05-16T13:54:22;3.28;;;2.00;;
12912;SDS011;6524;51.368;11.984;2023-05-16T13:59:23;6.65;;;2.28;;
12912;SDS011;6524;51.368;11.984;2023-05-16T14:04:23;5.40;;;2.65;;
12912;SDS011;6524;51.368;11.984;2023-05-16T14:09:25;4.65;;;1.98;;
12912;SDS011;6524;51.368;11.984;2023-05-16T14:14:25;4.45;;;1.83;;
12912;SDS011;6524;51.368;11.984;2023-05-16T14:19:26;3.75;;;1.80;;
12912;SDS011;6524;51.368;11.984;2023-05-16T14:24:26;3.72;;;1.98;;
12912;SDS011;6524;51.368;11.984;2023-05-16T14:29:26;4.32;;;1.90;;
12912;SDS011;6524;51.368;11.984;2023-05-16T14:34:27;3.53;;;1.90;;
12912;SDS011;6524;51.368;11.984;2023-05-16T14:39:27;3.60;;;1.98;;
12912;SDS011;6524;51.368;11.984;2023-05-16T14:44:27;3.90;;;1.90;;
12912;SDS011;6524;51.368;11.984;2023-05-16T14:49:28;4.30;;;1.85;;
12912;SDS011;6524;51.368;11.984;2023-05-16T14:54:28;4.40;;;2.05;;
12912;SDS011;6524;51.368;11.984;2023-05-16T14:59:29;4.00;;;1.63;;
12912;SDS011;6524;51.368;11.984;2023-05-16T15:04:29;7.03;;;2.40;;
12912;SDS011;6524;51.368;11.984;2023-05-16T15:09:31;3.40;;;1.77;;
12912;SDS011;6524;51.368;11.984;2023-05-16T15:14:31;3.75;;;1.83;;
12912;SDS011;6524;51.368;11.984;2023-05-16T15:19:32;3.45;;;2.05;;
12912;SDS011;6524;51.368;11.984;2023-05-16T15:24:33;4.70;;;2.03;;
12912;SDS011;6524;51.368;11.984;2023-05-16T15:29:33;4.28;;;2.00;;
12912;SDS011;6524;51.368;11.984;2023-05-16T15:34:34;6.45;;;2.22;;
12912;SDS011;6524;51.368;11.984;2023-05-16T15:39:34;2.85;;;1.73;;
12912;SDS011;6524;51.368;11.984;2023-05-16T16:27:34;4.32;;;1.70;;
12912;SDS011;6524;51.368;11.984;2023-05-16T16:32:34;4.40;;;1.88;;
12912;SDS011;6524;51.368;11.984;2023-05-16T16:37:35;3.50;;;1.90;;
12912;SDS011;6524;51.368;11.984;2023-05-16T16:42:36;3.97;;;1.83;;
12912;SDS011;6524;51.368;11.984;2023-05-16T16:47:37;4.53;;;1.85;;
12912;SDS011;6524;51.368;11.984;2023-05-16T16:52:39;2.92;;;1.67;;
12912;SDS011;6524;51.368;11.984;2023-05-16T16:57:40;3.03;;;1.70;;
12912;SDS011;6524;51.368;11.984;2023-05-16T17:02:41;4.38;;;2.00;;
12912;SDS011;6524;51.368;11.984;2023-05-16T17:07:42;2.97;;;1.80;;
12912;SDS011;6524;51.368;11.984;2023-05-16T17:12:42;4.45;;;1.80;;
12912;SDS011;6524;51.368;11.984;2023-05-16T17:17:48;2.92;;;1.90;;
12912;SDS011;6524;51.368;11.984;2023-05-16T17:22:49;4.85;;;1.70;;
12912;SDS011;6524;51.368;11.984;2023-05-16T17:27:49;4.10;;;1.77;;
12912;SDS011;6524;51.368;11.984;2023-05-16T17:32:50;3.90;;;1.98;;
12912;SDS011;6524;51.368;11.984;2023-05-16T17:37:50;3.75;;;1.90;;
12912;SDS011;6524;51.368;11.984;2023-05-16T17:42:51;3.80;;;1.90;;
12912;SDS011;6524;51.368;11.984;2023-05-16T17:47:52;6.65;;;2.20;;
12912;SDS011;6524;51.368;11.984;2023-05-16T17:52:52;3.72;;;1.80;;
12912;SDS011;6524;51.368;11.984;2023-05-16T17:57:53;2.53;;;2.00;;
12912;SDS011;6524;51.368;11.984;2023-05-16T18:02:54;4.05;;;2.00;;
12912;SDS011;6524;51.368;11.984;2023-05-16T18:07:54;6.20;;;2.00;;
12912;SDS011;6524;51.368;11.984;2023-05-16T18:12:56;5.30;;;2.30;;
12912;SDS011;6524;51.368;11.984;2023-05-16T18:17:56;4.50;;;2.03;;
12912;SDS011;6524;51.368;11.984;2023-05-16T18:23:00;4.03;;;1.90;;
12912;SDS011;6524;51.368;11.984;2023-05-16T18:28:01;4.93;;;1.95;;
12912;SDS011;6524;51.368;11.984;2023-05-16T18:33:01;4.63;;;1.90;;
12912;SDS011;6524;51.368;11.984;2023-05-16T18:38:02;3.80;;;1.83;;
12912;SDS011;6524;51.368;11.984;2023-05-16T18:43:03;4.53;;;1.80;;
12912;SDS011;6524;51.368;11.984;2023-05-16T18:48:04;4.07;;;1.80;;
12912;SDS011;6524;51.368;11.984;2023-05-16T18:53:05;3.75;;;1.70;;
12912;SDS011;6524;51.368;11.984;2023-05-16T18:58:05;2.80;;;1.42;;
12912;SDS011;6524;51.368;11.984;2023-05-16T19:03:09;7.07;;;1.60;;
12912;SDS011;6524;51.368;11.984;2023-05-16T19:08:10;2.45;;;1.70;;
12912;SDS011;6524;51.368;11.984;2023-05-16T19:13:11;4.20;;;2.03;;
12912;SDS011;6524;51.368;11.984;2023-05-16T19:18:11;3.33;;;1.80;;
12912;SDS011;6524;51.368;11.984;2023-05-16T19:23:12;3.33;;;1.70;;
12912;SDS011;6524;51.368;11.984;2023-05-16T19:28:13;3.30;;;1.75;;
12912;SDS011;6524;51.368;11.984;2023-05-16T19:33:14;4.18;;;1.95;;
12912;SDS011;6524;51.368;11.984;2023-05-16T19:38:16;3.53;;;1.60;;
12912;SDS011;6524;51.368;11.984;2023-05-16T19:43:18;4.07;;;1.90;;
12912;SDS011;6524;51.368;11.984;2023-05-16T19:48:19;8.30;;;1.90;;
12912;SDS011;6524;51.368;11.984;2023-05-16T19:53:20;4.45;;;1.67;;
12912;SDS011;6524;51.368;11.984;2023-05-16T19:58:21;3.28;;;1.80;;
12912;SDS011;6524;51.368;11.984;2023-05-16T20:03:21;2.78;;;1.98;;
12912;SDS011;6524;51.368;11.984;2023-05-16T20:08:22;3.63;;;1.90;;
12912;SDS011;6524;51.368;11.984;2023-05-16T20:13:23;2.90;;;1.60;;
12912;SDS011;6524;51.368;11.984;2023-05-16T20:18:24;4.10;;;1.65;;
12912;SDS011;6524;51.368;11.984;2023-05-16T20:23:25;3.17;;;1.60;;
12912;SDS011;6524;51.368;11.984;2023-05-16T20:28:26;3.05;;;1.80;;
12912;SDS011;6524;51.368;11.984;2023-05-16T20:33:26;2.38;;;1.60;;
12912;SDS011;6524;51.368;11.984;2023-05-16T20:38:27;2.53;;;1.70;;
12912;SDS011;6524;51.368;11.984;2023-05-16T20:43:28;2.35;;;1.85;;
12912;SDS011;6524;51.368;11.984;2023-05-16T20:48:28;2.53;;;1.58;;
12912;SDS011;6524;51.368;11.984;2023-05-16T20:53:29;2.72;;;1.38;;
12912;SDS011;6524;51.368;11.984;2023-05-16T20:58:30;3.42;;;1.70;;
12912;SDS011;6524;51.368;11.984;2023-05-16T21:03:30;5.07;;;1.70;;
12912;SDS011;6524;51.368;11.984;2023-05-16T21:08:31;2.97;;;1.70;;
12912;SDS011;6524;51.368;11.984;2023-05-16T21:13:31;3.60;;;1.70;;
12912;SDS011;6524;51.368;11.984;2023-05-16T21:18:32;4.88;;;1.95;;
12912;SDS011;6524;51.368;11.984;2023-05-16T21:23:32;3.15;;;1.80;;
12912;SDS011;6524;51.368;11.984;2023-05-16T21:28:34;2.58;;;1.50;;
12912;SDS011;6524;51.368;11.984;2023-05-16T21:33:34;2.95;;;1.83;;
12912;SDS011;6524;51.368;11.984;2023-05-16T21:38:35;3.47;;;1.80;;
12912;SDS011;6524;51.368;11.984;2023-05-16T21:43:36;3.20;;;1.80;;
12912;SDS011;6524;51.368;11.984;2023-05-16T21:48:37;2.30;;;1.60;;
12912;SDS011;6524;51.368;11.984;2023-05-16T21:53:40;5.20;;;1.70;;
12912;SDS011;6524;51.368;11.984;2023-05-16T21:58:41;4.63;;;1.70;;
12912;SDS011;6524;51.368;11.984;2023-05-16T22:03:41;2.73;;;1.70;;
12912;SDS011;6524;51.368;11.984;2023-05-16T22:08:42;3.63;;;1.80;;
12912;SDS011;6524;51.368;11.984;2023-05-16T22:13:42;3.47;;;1.80;;
12912;SDS011;6524;51.368;11.984;2023-05-16T22:18:43;5.27;;;2.20;;
12912;SDS011;6524;51.368;11.984;2023-05-16T22:23:44;3.07;;;1.50;;
12912;SDS011;6524;51.368;11.984;2023-05-16T22:28:44;3.70;;;1.70;;
12912;SDS011;6524;51.368;11.984;2023-05-16T22:33:45;3.90;;;1.80;;
12912;SDS011;6524;51.368;11.984;2023-05-16T22:38:45;3.83;;;1.87;;
12912;SDS011;6524;51.368;11.984;2023-05-16T22:43:46;3.50;;;1.70;;
12912;SDS011;6524;51.368;11.984;2023-05-16T22:48:46;2.90;;;1.80;;
12912;SDS011;6524;51.368;11.984;2023-05-16T22:53:47;4.47;;;1.80;;
12912;SDS011;6524;51.368;11.984;2023-05-16T22:58:47;2.83;;;1.67;;
12912;SDS011;6524;51.368;11.984;2023-05-16T23:03:47;2.63;;;1.90;;
12912;SDS011;6524;51.368;11.984;2023-05-16T23:08:48;2.63;;;2.00;;
12912;SDS011;6524;51.368;11.984;2023-05-16T23:13:48;3.20;;;2.10;;
12912;SDS011;6524;51.368;11.984;2023-05-16T23:18:48;3.60;;;1.97;;
12912;SDS011;6524;51.368;11.984;2023-05-16T23:23:49;3.27;;;2.00;;
12912;SDS011;6524;51.368;11.984;2023-05-16T23:28:50;3.47;;;1.93;;
12912;SDS011;6524;51.368;11.984;2023-05-16T23:33:50;3.53;;;1.87;;
12912;SDS011;6524;51.368;11.984;2023-05-16T23:38:50;5.27;;;2.07;;
12912;SDS011;6524;51.368;11.984;2023-05-16T23:43:51;3.50;;;2.10;;
12912;SDS011;6524;51.368;11.984;2023-05-16T23:48:51;3.37;;;2.00;;
12912;SDS011;6524;51.368;11.984;2023-05-16T23:53:51;3.00;;;1.97;;
12912;SDS011;6524;51.368;11.984;2023-05-16T23:58:52;3.20;;;1.77;;
